createdAt,value
2022-10-09T00:01:46.043Z,13.62
2022-10-09T00:04:13.315Z,15.13
2022-10-09T00:06:40.312Z,15.32
2022-10-09T00:09:07.532Z,16.08
2022-10-09T00:11:34.988Z,16.80
2022-10-09T00:14:02.943Z,14.90
2022-10-09T00:16:30.158Z,14.48
2022-10-09T00:18:58.319Z,18.75
2022-10-09T00:21:30.455Z,18.27
2022-10-09T00:23:59.390Z,16.55
2022-10-09T00:26:27.167Z,17.73
2022-10-09T00:28:54.588Z,19.48
2022-10-09T00:31:22.683Z,18.83
2022-10-09T00:33:49.794Z,19.92
2022-10-09T00:36:21.788Z,22.85
2022-10-09T00:38:49.627Z,21.10
2022-10-09T00:41:26.499Z,25.80
2022-10-09T00:43:56.696Z,25.10
2022-10-09T00:46:41.947Z,25.40
2022-10-09T00:49:17.534Z,30.08
2022-10-09T00:51:46.307Z,26.98
2022-10-09T00:54:15.792Z,25.80
2022-10-09T00:56:42.987Z,28.60
2022-10-09T00:59:11.174Z,30.98
2022-10-09T01:01:39.896Z,35.90
2022-10-09T01:04:07.088Z,30.12
2022-10-09T01:07:11.229Z,30.50
2022-10-09T01:09:44.220Z,29.00
2022-10-09T01:12:12.993Z,34.25
2022-10-09T01:14:50.250Z,30.98
2022-10-09T01:17:36.681Z,32.67
2022-10-09T01:20:28.977Z,37.67
2022-10-09T01:23:35.210Z,38.50
2022-10-09T01:26:39.319Z,37.25
2022-10-09T01:29:08.101Z,38.25
2022-10-09T01:31:38.641Z,37.30
2022-10-09T01:34:06.671Z,34.35
2022-10-09T01:36:34.566Z,31.67
2022-10-09T01:39:03.872Z,37.65
2022-10-09T01:41:31.135Z,37.95
2022-10-09T01:43:58.136Z,33.83
2022-10-09T01:46:30.962Z,40.97
2022-10-09T01:49:23.218Z,35.22
2022-10-09T01:52:11.594Z,34.42
2022-10-09T01:54:41.543Z,35.97
2022-10-09T01:57:10.566Z,34.90
2022-10-09T01:59:39.823Z,35.28
2022-10-09T02:02:07.871Z,35.85
2022-10-09T02:04:37.517Z,37.97
2022-10-09T02:07:05.085Z,41.05
2022-10-09T02:09:32.875Z,40.00
2022-10-09T02:12:04.323Z,38.40
2022-10-09T02:14:31.341Z,38.75
2022-10-09T02:17:05.282Z,44.63
2022-10-09T02:19:46.075Z,45.53
2022-10-09T02:22:17.739Z,42.85
2022-10-09T02:24:45.273Z,45.50
2022-10-09T02:27:13.257Z,45.08
2022-10-09T02:29:42.061Z,36.90
2022-10-09T02:32:10.291Z,43.15
2022-10-09T02:34:37.390Z,42.75
2022-10-09T02:37:04.494Z,46.83
2022-10-09T02:39:31.805Z,48.00
2022-10-09T02:41:58.821Z,43.22
2022-10-09T02:44:25.897Z,47.83
2022-10-09T02:46:53.532Z,42.28
2022-10-09T02:49:20.634Z,49.67
2022-10-09T02:51:47.969Z,43.00
2022-10-09T02:54:15.258Z,44.40
2022-10-09T02:56:42.240Z,46.50
2022-10-09T02:59:09.353Z,52.05
2022-10-09T03:01:36.826Z,50.40
2022-10-09T03:04:04.435Z,51.88
2022-10-09T03:06:31.822Z,45.60
2022-10-09T03:08:59.115Z,42.10
2022-10-09T03:11:26.634Z,49.17
2022-10-09T03:13:54.599Z,44.88
2022-10-09T03:16:24.122Z,49.03
2022-10-09T03:18:52.183Z,51.92
2022-10-09T03:21:21.495Z,50.25
2022-10-09T03:23:50.152Z,50.65
2022-10-09T03:26:20.433Z,57.53
2022-10-09T03:28:49.010Z,52.28
2022-10-09T03:31:39.311Z,49.83
2022-10-09T03:34:04.939Z,52.15
2022-10-09T03:36:32.217Z,55.47
2022-10-09T03:38:59.639Z,50.90
2022-10-09T03:41:26.654Z,56.63
2022-10-09T03:43:53.971Z,59.05
2022-10-09T03:46:21.022Z,51.42
2022-10-09T03:48:48.107Z,50.90
2022-10-09T03:51:15.402Z,51.15
2022-10-09T03:53:42.416Z,55.85
2022-10-09T03:56:09.411Z,57.22
2022-10-09T03:58:36.723Z,55.60
2022-10-09T04:01:03.803Z,53.60
2022-10-09T04:03:31.205Z,47.75
2022-10-09T04:05:58.179Z,56.65
2022-10-09T04:08:25.337Z,52.45
2022-10-09T04:10:59.785Z,45.67
2022-10-09T04:13:27.156Z,55.35
2022-10-09T04:15:55.131Z,49.95
2022-10-09T04:18:22.772Z,53.35
2022-10-09T04:20:51.236Z,53.17
2022-10-09T04:23:19.516Z,44.08
2022-10-09T04:25:46.795Z,53.97
2022-10-09T04:28:14.005Z,46.30
2022-10-09T04:30:41.380Z,49.65
2022-10-09T04:33:12.705Z,49.10
2022-10-09T04:35:44.261Z,50.50
2022-10-09T04:38:11.776Z,54.03
2022-10-09T04:40:38.765Z,56.50
2022-10-09T04:43:05.784Z,54.17
2022-10-09T04:45:33.443Z,49.25
2022-10-09T04:48:00.448Z,47.78
2022-10-09T04:50:27.447Z,53.40
2022-10-09T04:52:58.028Z,51.75
2022-10-09T04:55:25.065Z,58.47
2022-10-09T04:57:52.066Z,54.40
2022-10-09T05:00:19.450Z,51.63
2022-10-09T05:02:46.630Z,55.20
2022-10-09T05:05:14.173Z,58.33
2022-10-09T05:07:41.441Z,55.88
2022-10-09T05:10:08.746Z,54.13
2022-10-09T05:12:35.718Z,55.05
2022-10-09T05:15:03.125Z,56.80
2022-10-09T05:17:30.178Z,54.22
2022-10-09T05:19:57.191Z,58.30
2022-10-09T05:22:24.872Z,49.97
2022-10-09T05:24:51.829Z,50.88
2022-10-09T05:27:18.834Z,52.60
2022-10-09T05:29:46.119Z,52.03
2022-10-09T05:32:13.287Z,59.85
2022-10-09T05:34:40.394Z,49.97
2022-10-09T05:37:07.666Z,47.58
2022-10-09T05:39:36.010Z,48.80
2022-10-09T05:42:03.140Z,48.33
2022-10-09T05:44:30.432Z,48.42
2022-10-09T05:46:57.401Z,51.72
2022-10-09T05:49:24.510Z,47.80
2022-10-09T05:51:51.818Z,55.30
2022-10-09T05:54:18.814Z,52.00
2022-10-09T05:56:46.112Z,49.70
2022-10-09T05:59:15.848Z,51.97
2022-10-09T06:01:45.074Z,44.88
2022-10-09T06:04:15.768Z,47.13
2022-10-09T06:06:43.285Z,50.90
2022-10-09T06:09:11.636Z,47.40
2022-10-09T06:11:39.585Z,44.30
2022-10-09T06:14:09.246Z,46.30
2022-10-09T06:16:42.173Z,47.75
2022-10-09T06:19:12.542Z,50.88
2022-10-09T06:21:39.732Z,51.35
2022-10-09T06:24:07.174Z,43.45
2022-10-09T06:26:34.976Z,45.55
2022-10-09T06:29:02.499Z,45.03
2022-10-09T06:31:32.325Z,49.47
2022-10-09T06:34:01.065Z,47.75
2022-10-09T06:36:30.165Z,50.45
2022-10-09T06:38:59.370Z,45.03
2022-10-09T06:41:28.265Z,42.20
2022-10-09T06:44:00.209Z,38.78
2022-10-09T06:46:39.414Z,42.25
2022-10-09T06:49:07.523Z,42.75
2022-10-09T06:51:35.188Z,40.90
2022-10-09T06:54:05.011Z,41.25
2022-10-09T06:56:32.419Z,35.40
2022-10-09T06:59:00.845Z,34.38
2022-10-09T07:01:32.443Z,32.72
2022-10-09T07:04:06.979Z,26.02
2022-10-09T07:06:37.669Z,30.50
2022-10-09T07:09:07.036Z,32.00
2022-10-09T07:11:39.612Z,30.83
2022-10-09T07:14:08.674Z,28.90
2022-10-09T07:16:37.956Z,27.62
2022-10-09T07:19:07.754Z,28.85
2022-10-09T07:21:35.767Z,28.62
2022-10-09T07:24:03.940Z,23.70
2022-10-09T07:26:32.947Z,26.65
2022-10-09T07:29:00.489Z,25.23
2022-10-09T07:31:27.532Z,26.62
2022-10-09T07:33:56.857Z,26.17
2022-10-09T07:36:24.776Z,25.15
2022-10-09T07:38:53.550Z,31.83
2022-10-09T07:41:21.198Z,29.37
2022-10-09T07:43:48.504Z,30.90
2022-10-09T07:46:17.868Z,26.33
2022-10-09T07:48:45.759Z,24.40
2022-10-09T07:51:18.681Z,27.05
2022-10-09T07:53:46.263Z,27.13
2022-10-09T07:56:17.908Z,24.27
2022-10-09T07:58:53.063Z,29.37
2022-10-09T08:01:21.275Z,27.48
2022-10-09T08:03:49.530Z,25.95
2022-10-09T08:06:17.440Z,28.30
2022-10-09T08:08:44.752Z,21.40
2022-10-09T08:11:14.947Z,24.92
2022-10-09T08:13:42.439Z,22.58
2022-10-09T08:16:09.632Z,26.17
2022-10-09T08:18:37.039Z,19.52
2022-10-09T08:21:14.724Z,20.80
2022-10-09T08:23:42.446Z,22.50
2022-10-09T08:26:18.370Z,21.98
2022-10-09T08:28:57.513Z,21.30
2022-10-09T08:31:25.254Z,17.65
2022-10-09T08:33:56.556Z,16.92
2022-10-09T08:36:24.099Z,18.08
2022-10-09T08:38:51.540Z,18.65
2022-10-09T08:41:34.061Z,19.00
2022-10-09T08:44:13.328Z,17.48
2022-10-09T08:47:10.815Z,17.62
2022-10-09T08:49:37.727Z,17.20
2022-10-09T08:52:21.599Z,20.90
2022-10-09T08:54:50.053Z,19.02
2022-10-09T08:57:17.805Z,18.83
2022-10-09T08:59:44.960Z,15.07
2022-10-09T09:02:38.068Z,17.55
2022-10-09T09:05:53.222Z,21.02
2022-10-09T09:08:31.867Z,18.33
2022-10-09T09:11:21.439Z,14.35
2022-10-09T09:14:21.955Z,14.13
2022-10-09T09:16:54.749Z,15.35
2022-10-09T09:19:33.874Z,16.48
2022-10-09T09:22:01.173Z,11.12
2022-10-09T09:24:35.462Z,15.73
2022-10-09T09:27:13.235Z,10.13
2022-10-09T09:29:45.303Z,16.15
2022-10-09T09:32:22.497Z,10.60
2022-10-09T09:34:54.184Z,13.23
2022-10-09T09:37:21.495Z,12.80
2022-10-09T09:40:34.941Z,12.43
2022-10-09T09:42:35.777Z,11.27
2022-10-09T09:45:05.366Z,10.40
2022-10-09T09:47:40.730Z,11.55
2022-10-09T09:50:28.561Z,9.90
2022-10-09T09:53:01.870Z,13.15
2022-10-09T09:55:31.586Z,10.27
2022-10-09T09:58:07.338Z,11.43
2022-10-09T10:00:35.451Z,11.88
2022-10-09T10:03:17.045Z,11.30
2022-10-09T10:05:44.957Z,11.10
2022-10-09T10:08:22.841Z,10.35
2022-10-09T10:10:51.764Z,9.45
2022-10-09T10:13:21.812Z,10.65
2022-10-09T10:15:54.750Z,10.55
2022-10-09T10:18:24.668Z,11.48
2022-10-09T10:20:55.596Z,8.85
2022-10-09T10:23:33.311Z,9.95
2022-10-09T10:26:07.062Z,9.20
2022-10-09T10:28:41.521Z,9.57
2022-10-09T10:31:15.179Z,11.68
2022-10-09T10:33:43.116Z,9.23
2022-10-09T10:36:11.005Z,9.27
2022-10-09T10:38:55.670Z,7.18
2022-10-09T10:41:32.536Z,8.55
2022-10-09T10:44:08.318Z,8.68
2022-10-09T10:46:44.534Z,6.62
2022-10-09T10:49:11.929Z,7.05
2022-10-09T10:51:45.090Z,8.38
2022-10-09T10:54:27.243Z,7.50
2022-10-09T10:57:05.790Z,8.20
2022-10-09T10:59:39.472Z,7.82
2022-10-09T11:02:09.868Z,9.25
2022-10-09T11:04:47.086Z,8.20
2022-10-09T11:07:17.057Z,6.45
2022-10-09T11:10:11.408Z,6.53
2022-10-09T11:12:53.064Z,4.62
2022-10-09T11:15:34.231Z,6.43
2022-10-09T11:18:16.748Z,4.15
2022-10-09T11:21:19.166Z,7.60
2022-10-09T11:24:11.895Z,6.10
2022-10-09T11:27:50.509Z,7.35
2022-10-09T11:30:18.443Z,10.90
2022-10-09T11:32:45.378Z,5.87
2022-10-09T11:35:12.337Z,7.05
2022-10-09T11:37:42.201Z,5.95
2022-10-09T11:40:15.515Z,4.28
2022-10-09T11:45:27.215Z,4.10
2022-10-09T11:48:08.561Z,4.30
2022-10-09T11:51:06.393Z,5.40
2022-10-09T11:53:37.045Z,6.43
2022-10-09T11:56:06.356Z,6.62
2022-10-09T11:58:34.101Z,5.55
2022-10-09T12:01:13.780Z,5.12
2022-10-09T12:03:41.595Z,4.40
2022-10-09T12:06:13.625Z,6.30
2022-10-09T12:09:02.235Z,6.87
2022-10-09T12:11:29.977Z,5.55
2022-10-09T12:14:02.888Z,6.60
2022-10-09T12:16:40.939Z,5.47
2022-10-09T12:19:20.456Z,4.60
2022-10-09T12:21:51.119Z,5.00
2022-10-09T12:24:22.954Z,3.37
2022-10-09T12:26:51.289Z,8.88
2022-10-09T12:29:27.882Z,4.95
2022-10-09T12:31:58.538Z,7.75
2022-10-09T12:34:36.755Z,4.45
2022-10-09T12:37:36.349Z,5.22
2022-10-09T12:40:10.402Z,4.15
2022-10-09T12:45:05.527Z,3.83
2022-10-09T12:47:34.882Z,7.53
2022-10-09T12:50:17.197Z,3.62
2022-10-09T12:52:57.354Z,5.07
2022-10-09T12:55:36.270Z,6.68
2022-10-09T12:58:12.053Z,3.78
2022-10-09T13:00:39.844Z,6.05
2022-10-09T13:03:37.870Z,3.87
2022-10-09T13:06:08.026Z,5.90
2022-10-09T13:08:38.214Z,7.12
2022-10-09T13:11:35.306Z,5.30
2022-10-09T13:14:03.077Z,4.20
2022-10-09T13:16:44.864Z,6.35
2022-10-09T13:19:38.492Z,5.07
2022-10-09T13:22:16.059Z,7.75
2022-10-09T13:24:43.426Z,3.75
2022-10-09T13:27:12.019Z,5.53
2022-10-09T13:29:39.229Z,5.57
2022-10-09T13:32:08.967Z,3.95
2022-10-09T13:34:35.921Z,7.93
2022-10-09T13:37:02.909Z,7.55
2022-10-09T13:39:30.222Z,5.18
2022-10-09T13:41:59.021Z,34.47
2022-10-09T13:44:26.246Z,6.85
2022-10-09T13:46:53.606Z,11.60
2022-10-09T13:49:20.640Z,11.35
2022-10-09T13:51:47.659Z,9.50
2022-10-09T13:54:17.797Z,11.23
2022-10-09T13:56:44.817Z,14.18
2022-10-09T13:59:12.160Z,10.82
2022-10-09T14:01:39.551Z,11.32
2022-10-09T14:04:06.909Z,14.25
2022-10-09T14:06:36.076Z,11.73
2022-10-09T14:09:05.224Z,12.88
2022-10-09T14:11:32.714Z,8.93
2022-10-09T14:13:59.775Z,11.73
2022-10-09T14:16:27.722Z,11.73
2022-10-09T14:19:03.378Z,12.32
2022-10-09T14:21:30.581Z,8.80
2022-10-09T14:23:59.899Z,26.42
2022-10-09T14:26:27.614Z,11.00
2022-10-09T14:28:59.122Z,9.52
2022-10-09T14:31:26.701Z,12.43
2022-10-09T14:33:56.747Z,14.25
2022-10-09T14:36:23.952Z,10.50
2022-10-09T14:38:51.306Z,13.57
2022-10-09T14:41:18.623Z,10.63
2022-10-09T14:43:46.765Z,11.48
2022-10-09T14:46:17.118Z,11.05
2022-10-09T14:48:45.482Z,14.48
2022-10-09T14:51:15.249Z,12.93
2022-10-09T14:53:42.699Z,10.93
2022-10-09T14:56:16.224Z,10.85
2022-10-09T15:01:15.097Z,13.05
2022-10-09T15:03:42.709Z,11.25
2022-10-09T15:06:11.813Z,12.00
2022-10-09T15:08:40.939Z,11.75
2022-10-09T15:11:09.382Z,12.00
2022-10-09T15:13:37.279Z,19.70
2022-10-09T15:16:07.054Z,11.45
2022-10-09T15:18:34.326Z,12.37
2022-10-09T15:21:01.846Z,10.57
2022-10-09T15:23:29.038Z,11.07
2022-10-09T15:25:57.891Z,9.48
2022-10-09T15:28:25.599Z,14.82
2022-10-09T15:30:59.616Z,16.12
2022-10-09T15:33:27.561Z,12.07
2022-10-09T15:35:54.613Z,13.25
2022-10-09T15:38:23.728Z,12.05
2022-10-09T15:40:55.579Z,12.75
2022-10-09T15:43:26.049Z,12.68
2022-10-09T15:46:01.551Z,8.90
2022-10-09T15:48:28.518Z,9.75
2022-10-09T15:50:55.851Z,10.93
2022-10-09T15:53:24.467Z,5.68
2022-10-09T15:55:53.082Z,6.80
2022-10-09T15:58:20.750Z,5.43
2022-10-09T16:00:49.333Z,4.93
2022-10-09T16:03:18.962Z,4.20
2022-10-09T16:05:48.922Z,4.30
2022-10-09T16:08:17.451Z,3.97
2022-10-09T16:10:49.534Z,6.87
2022-10-09T16:13:16.882Z,6.35
2022-10-09T16:15:47.030Z,4.15
2022-10-09T16:18:15.528Z,4.68
2022-10-09T16:20:42.814Z,2.78
2022-10-09T16:23:10.232Z,3.33
2022-10-09T16:25:38.323Z,2.20
2022-10-09T16:28:07.058Z,3.50
2022-10-09T16:30:39.688Z,3.33
2022-10-09T16:33:12.238Z,5.32
2022-10-09T16:35:40.199Z,4.45
2022-10-09T16:38:07.653Z,3.00
2022-10-09T16:41:00.870Z,5.22
2022-10-09T16:43:22.301Z,5.70
2022-10-09T16:45:49.327Z,8.48
2022-10-09T16:48:16.336Z,7.32
2022-10-09T16:50:43.608Z,8.05
2022-10-09T16:53:10.644Z,11.70
2022-10-09T16:55:37.675Z,8.93
2022-10-09T16:58:05.190Z,17.62
2022-10-09T17:00:32.253Z,20.40
2022-10-09T17:02:59.352Z,21.00
2022-10-09T17:05:28.142Z,16.33
2022-10-09T17:07:55.185Z,8.20
2022-10-09T17:10:22.282Z,12.55
2022-10-09T17:12:49.608Z,10.55
2022-10-09T17:15:16.668Z,9.73
2022-10-09T17:17:43.668Z,13.05
2022-10-09T17:20:10.993Z,9.82
2022-10-09T17:22:38.011Z,9.65
2022-10-09T17:25:05.665Z,11.20
2022-10-09T17:27:33.467Z,8.88
2022-10-09T17:30:00.454Z,12.68
2022-10-09T17:32:27.554Z,12.63
2022-10-09T17:34:54.821Z,14.40
2022-10-09T17:37:21.861Z,12.82
2022-10-09T17:39:52.383Z,16.35
2022-10-09T17:42:19.861Z,12.98
2022-10-09T17:44:46.888Z,16.25
2022-10-09T17:47:13.886Z,13.98
2022-10-09T17:49:41.257Z,15.68
2022-10-09T17:52:08.274Z,14.85
2022-10-09T17:54:35.266Z,12.52
2022-10-09T17:57:05.210Z,16.12
2022-10-09T17:59:34.337Z,14.85
2022-10-09T18:02:01.370Z,21.98
2022-10-09T18:04:28.652Z,15.15
2022-10-09T18:06:55.737Z,14.68
2022-10-09T18:09:22.736Z,11.88
2022-10-09T18:11:50.059Z,12.32
2022-10-09T18:14:17.123Z,12.90
2022-10-09T18:16:44.294Z,12.40
2022-10-09T18:19:14.522Z,9.73
2022-10-09T18:21:44.255Z,10.93
2022-10-09T18:24:12.145Z,12.15
2022-10-09T18:26:39.386Z,8.25
2022-10-09T18:29:06.636Z,14.35
2022-10-09T18:31:34.402Z,11.25
2022-10-09T18:34:01.740Z,10.45
2022-10-09T18:36:34.448Z,9.82
2022-10-09T18:39:13.341Z,10.23
2022-10-09T18:41:40.667Z,12.57
2022-10-09T18:44:17.311Z,8.57
2022-10-09T18:46:56.384Z,7.68
2022-10-09T18:49:27.722Z,12.57
2022-10-09T18:51:54.993Z,7.07
2022-10-09T18:54:24.221Z,6.65
2022-10-09T18:56:51.676Z,9.55
2022-10-09T18:59:21.048Z,6.85
2022-10-09T19:01:48.501Z,11.98
2022-10-09T19:04:15.862Z,17.25
2022-10-09T19:06:42.841Z,7.87
2022-10-09T19:09:10.081Z,13.30
2022-10-09T19:11:37.386Z,8.35
2022-10-09T19:14:04.640Z,13.40
2022-10-09T19:16:33.999Z,11.30
2022-10-09T19:19:01.462Z,9.32
2022-10-09T19:21:28.519Z,10.25
2022-10-09T19:23:55.704Z,12.35
2022-10-09T19:26:23.282Z,6.95
2022-10-09T19:28:50.338Z,5.57
2022-10-09T19:31:18.306Z,12.60
2022-10-09T19:33:45.653Z,9.75
2022-10-09T19:36:13.701Z,6.97
2022-10-09T19:38:41.016Z,10.65
2022-10-09T19:41:10.545Z,8.88
2022-10-09T19:43:38.438Z,8.82
2022-10-09T19:46:11.224Z,6.43
2022-10-09T19:48:38.561Z,8.88
2022-10-09T19:51:14.296Z,7.65
2022-10-09T19:53:43.383Z,12.32
2022-10-09T19:56:17.065Z,7.30
2022-10-09T20:01:17.536Z,15.32
2022-10-09T20:03:45.006Z,9.68
2022-10-09T20:06:12.496Z,7.25
2022-10-09T20:08:40.908Z,5.50
2022-10-09T20:11:11.292Z,6.85
2022-10-09T20:13:39.684Z,5.43
2022-10-09T20:16:10.335Z,6.45
2022-10-09T20:18:42.357Z,7.15
2022-10-09T20:21:14.730Z,12.00
2022-10-09T20:23:44.269Z,5.72
2022-10-09T20:26:13.762Z,6.45
2022-10-09T20:28:41.100Z,4.93
2022-10-09T20:31:14.679Z,7.37
2022-10-09T20:33:42.497Z,6.90
2022-10-09T20:36:28.745Z,10.85
2022-10-09T20:38:57.569Z,10.38
2022-10-09T20:41:25.960Z,10.50
2022-10-09T20:43:54.068Z,7.57
2022-10-09T20:46:23.754Z,6.87
2022-10-09T20:48:52.053Z,8.55
2022-10-09T20:51:19.832Z,5.15
2022-10-09T20:53:51.243Z,7.43
2022-10-09T20:56:19.247Z,9.73
2022-10-09T20:58:46.264Z,8.15
2022-10-09T21:01:15.388Z,6.57
2022-10-09T21:03:43.503Z,5.70
2022-10-09T21:06:13.504Z,5.22
2022-10-09T21:08:40.545Z,6.28
2022-10-09T21:11:10.116Z,7.57
2022-10-09T21:13:38.089Z,5.30
2022-10-09T21:16:06.704Z,5.25
2022-10-09T21:18:34.342Z,6.82
2022-10-09T21:21:19.380Z,7.57
2022-10-09T21:23:51.297Z,5.57
2022-10-09T21:26:19.441Z,7.43
2022-10-09T21:28:47.218Z,6.75
2022-10-09T21:31:23.431Z,7.22
2022-10-09T21:33:50.747Z,4.62
2022-10-09T21:36:51.117Z,4.97
2022-10-09T21:39:27.651Z,6.20
2022-10-09T21:41:55.298Z,4.07
2022-10-09T21:44:22.272Z,4.85
2022-10-09T21:46:49.584Z,4.28
2022-10-09T21:49:23.806Z,5.62
2022-10-09T21:51:51.566Z,8.07
2022-10-09T21:54:18.663Z,8.02
2022-10-09T21:56:45.692Z,4.20
2022-10-09T21:59:13.298Z,3.87
2022-10-09T22:01:40.338Z,6.60
2022-10-09T22:04:08.013Z,3.62
2022-10-09T22:06:34.972Z,4.00
2022-10-09T22:09:01.977Z,3.80
2022-10-09T22:11:29.282Z,4.00
2022-10-09T22:13:56.270Z,4.18
2022-10-09T22:16:23.524Z,5.70
2022-10-09T22:18:50.864Z,5.12
2022-10-09T22:21:18.327Z,2.62
2022-10-09T22:23:45.451Z,3.22
2022-10-09T22:26:18.226Z,4.05
2022-10-09T22:28:47.062Z,2.85
2022-10-09T22:31:19.544Z,3.55
2022-10-09T22:33:54.527Z,5.82
2022-10-09T22:36:24.108Z,5.53
2022-10-09T22:38:55.971Z,3.08
2022-10-09T22:41:24.156Z,3.60
2022-10-09T22:43:53.571Z,4.72
2022-10-09T22:46:23.373Z,4.78
2022-10-09T22:48:51.310Z,8.00
2022-10-09T22:51:19.533Z,5.53
2022-10-09T22:53:47.245Z,5.97
2022-10-09T22:56:22.503Z,4.97
2022-10-09T22:58:51.711Z,3.85
2022-10-09T23:01:29.973Z,10.80
2022-10-09T23:04:02.263Z,3.97
2022-10-09T23:06:29.600Z,4.70
2022-10-09T23:08:57.109Z,4.15
2022-10-09T23:11:24.811Z,4.40
2022-10-09T23:13:56.737Z,4.65
2022-10-09T23:16:24.606Z,2.50
2022-10-09T23:18:51.891Z,3.70
2022-10-09T23:21:21.877Z,6.12
2022-10-09T23:23:49.742Z,3.15
2022-10-09T23:26:22.730Z,6.87
2022-10-09T23:28:51.575Z,3.78
2022-10-09T23:31:19.369Z,2.97
2022-10-09T23:33:46.634Z,4.25
2022-10-09T23:36:16.936Z,5.03
2022-10-09T23:38:44.327Z,3.17
2022-10-09T23:41:14.407Z,4.00
2022-10-09T23:43:42.767Z,2.55
2022-10-09T23:46:13.316Z,3.22
2022-10-09T23:48:40.331Z,3.83
2022-10-09T23:51:07.516Z,7.53
2022-10-09T23:53:35.496Z,3.12
2022-10-09T23:56:26.262Z,9.93
2022-10-09T23:58:54.650Z,2.50
